Aflex, Kentucky
Current Conditions -  °F | °C
As of 11:15 AM on Tuesday 21 Oct 2014 (Local Time) from KPBX Reporting Station
Overcast Overcast  
Wind Chill: 53°   Ceiling: 1000
Heat Index: 53°   Visibility: 10mi
Dew Point: 49°   Wind: 10mph
Humidity: 87%   Direction: 280°W
Pressure: 29.99"   Gusts: NA
Location:  37.632°N, 82.2603°W
Report Text: KPBX 211515Z AUTO 28009KT 10SM BKN010 BKN017 OVC060 12/10 A2999 RMK AO2 T01180097
Loading
Personal Weather Stations






























Interactive Weather Map
Tropical Storm Tracking
New forecast layout! Learn more

10-Day Weather Forecast

Advertisements
Track Severe Weather on mobile